createdAt,value
2022-08-21T00:05:14.522Z,19.16
2022-08-21T00:10:49.944Z,19.06
2022-08-21T00:13:34.423Z,18.98
2022-08-21T00:19:09.669Z,18.90
2022-08-21T00:27:35.654Z,18.69
2022-08-21T00:33:10.891Z,18.60
2022-08-21T00:38:46.414Z,18.54
2022-08-21T00:44:21.772Z,18.48
2022-08-21T00:49:57.130Z,18.43
2022-08-21T00:55:32.618Z,18.38
2022-08-21T01:01:08.886Z,18.34
2022-08-21T01:06:44.204Z,18.21
2022-08-21T01:12:19.615Z,18.09
2022-08-21T01:15:04.247Z,18.07
2022-08-21T01:20:39.487Z,18.06
2022-08-21T01:23:24.018Z,18.08
2022-08-21T01:31:50.112Z,18.09
2022-08-21T01:34:34.578Z,18.09
2022-08-21T01:40:10.010Z,18.02
2022-08-21T01:42:54.665Z,18.02
2022-08-21T01:48:30.018Z,17.95
2022-08-21T01:54:05.456Z,17.85
2022-08-21T01:59:40.747Z,17.77
2022-08-21T02:05:16.048Z,17.71
2022-08-21T02:10:51.575Z,17.65
2022-08-21T02:13:36.607Z,17.63
2022-08-21T02:19:11.813Z,17.69
2022-08-21T02:24:53.794Z,17.60
2022-08-21T02:30:31.410Z,17.54
2022-08-21T02:33:15.866Z,17.50
2022-08-21T02:38:51.848Z,17.46
2022-08-21T02:44:34.326Z,17.36
2022-08-21T02:50:13.791Z,17.30
2022-08-21T02:52:59.195Z,17.36
2022-08-21T03:01:25.549Z,17.46
2022-08-21T03:04:10.076Z,17.46
2022-08-21T03:09:55.542Z,17.44
2022-08-21T03:15:32.111Z,17.37
2022-08-21T03:21:07.377Z,17.33
2022-08-21T03:26:42.746Z,17.26
2022-08-21T03:32:18.453Z,17.21
2022-08-21T03:35:02.917Z,17.16
2022-08-21T03:40:38.610Z,17.17
2022-08-21T03:43:23.201Z,17.14
2022-08-21T03:48:58.590Z,17.05
2022-08-21T03:54:33.945Z,16.93
2022-08-21T04:00:09.260Z,16.77
2022-08-21T04:05:44.527Z,16.71
2022-08-21T04:08:28.996Z,16.69
2022-08-21T04:14:04.257Z,16.62
2022-08-21T04:19:39.556Z,16.60
2022-08-21T04:25:20.915Z,16.54
2022-08-21T04:28:05.631Z,16.57
2022-08-21T04:33:41.284Z,16.56
2022-08-21T04:39:16.668Z,16.51
2022-08-21T04:42:04.157Z,16.50
2022-08-21T04:56:11.749Z,16.56
2022-08-21T05:04:39.814Z,16.61
2022-08-21T05:07:41.641Z,16.64
2022-08-21T05:13:10.996Z,16.68
2022-08-21T05:18:46.364Z,16.80
2022-08-21T05:24:21.652Z,16.82
2022-08-21T05:29:57.041Z,16.88
2022-08-21T05:38:23.040Z,16.94
2022-08-21T05:43:58.615Z,16.98
2022-08-21T05:49:34.150Z,17.05
2022-08-21T05:55:09.542Z,17.13
2022-08-21T05:57:54.090Z,17.20
2022-08-21T06:03:29.417Z,17.25
2022-08-21T06:09:04.914Z,17.25
2022-08-21T06:14:40.578Z,17.28
2022-08-21T06:20:17.196Z,17.30
2022-08-21T06:25:52.510Z,17.33
2022-08-21T06:28:41.011Z,17.45
2022-08-21T06:34:16.320Z,17.60
2022-08-21T06:39:51.585Z,17.84
2022-08-21T06:45:28.280Z,18.13
2022-08-21T06:48:21.152Z,18.06
2022-08-21T06:53:56.381Z,18.12
2022-08-21T06:59:34.855Z,18.52
2022-08-21T07:05:18.094Z,18.76
2022-08-21T07:13:45.321Z,18.84
2022-08-21T07:19:20.663Z,19.00
2022-08-21T07:24:56.115Z,19.33
2022-08-21T07:27:40.554Z,19.22
2022-08-21T07:33:15.847Z,19.18
2022-08-21T07:38:53.236Z,19.55
2022-08-21T07:44:28.509Z,19.74
2022-08-21T07:50:05.114Z,19.74
2022-08-21T07:55:40.667Z,19.87
2022-08-21T07:58:25.258Z,19.72
2022-08-21T08:04:01.079Z,19.74
2022-08-21T08:09:36.358Z,19.88
2022-08-21T08:15:11.844Z,20.14
2022-08-21T08:17:56.439Z,20.24
2022-08-21T08:23:31.804Z,20.43
2022-08-21T08:29:09.074Z,20.79
2022-08-21T08:34:44.469Z,21.03
2022-08-21T08:40:21.774Z,21.19
2022-08-21T08:45:58.045Z,21.27
2022-08-21T08:48:49.327Z,21.32
2022-08-21T08:54:31.548Z,21.32
2022-08-21T09:00:06.843Z,21.31
2022-08-21T09:05:43.760Z,21.52
2022-08-21T09:08:28.319Z,21.51
2022-08-21T09:11:13.059Z,21.57
2022-08-21T09:16:48.377Z,21.66
2022-08-21T09:19:34.757Z,21.90
2022-08-21T09:25:10.929Z,21.57
2022-08-21T09:27:55.517Z,21.83
2022-08-21T09:33:31.123Z,22.25
2022-08-21T09:39:07.257Z,22.68
2022-08-21T09:44:42.600Z,22.54
2022-08-21T09:50:18.044Z,22.90
2022-08-21T09:55:53.345Z,23.09
2022-08-21T09:58:37.830Z,22.97
2022-08-21T10:04:13.119Z,22.53
2022-08-21T10:09:48.459Z,23.06
2022-08-21T10:18:14.509Z,23.08
2022-08-21T10:23:49.903Z,23.16
2022-08-21T10:32:25.825Z,23.17
2022-08-21T10:38:02.353Z,23.28
2022-08-21T10:43:37.670Z,23.21
2022-08-21T10:49:13.004Z,23.35
2022-08-21T10:57:41.039Z,23.81
2022-08-21T11:00:25.666Z,23.59
2022-08-21T11:06:01.104Z,23.75
2022-08-21T11:08:47.644Z,23.68
2022-08-21T11:14:23.244Z,23.86
2022-08-21T11:19:58.559Z,24.32
2022-08-21T11:25:36.871Z,24.42
2022-08-21T11:28:21.627Z,24.31
2022-08-21T11:33:57.078Z,24.49
2022-08-21T11:39:32.598Z,24.59
2022-08-21T11:45:07.904Z,24.27
2022-08-21T11:47:53.976Z,24.38
2022-08-21T11:56:20.134Z,24.06
2022-08-21T11:59:04.677Z,24.24
2022-08-21T12:04:40.069Z,24.48
2022-08-21T12:10:15.503Z,24.71
2022-08-21T12:18:41.693Z,24.49
2022-08-21T12:24:17.064Z,24.87
2022-08-21T12:29:52.348Z,24.83
2022-08-21T12:35:29.837Z,25.04
2022-08-21T12:38:14.366Z,25.28
2022-08-21T12:43:49.661Z,25.81
2022-08-21T12:49:26.879Z,25.89
2022-08-21T12:55:02.329Z,26.66
2022-08-21T13:00:38.413Z,27.80
2022-08-21T13:06:13.701Z,26.88
2022-08-21T13:08:58.219Z,26.79
2022-08-21T13:14:33.516Z,26.81
2022-08-21T13:20:09.919Z,25.68
2022-08-21T13:25:45.234Z,24.99
2022-08-21T13:28:29.986Z,24.91
2022-08-21T13:34:05.173Z,24.29
2022-08-21T13:39:40.541Z,23.97
2022-08-21T13:45:15.874Z,24.33
2022-08-21T13:48:00.327Z,24.55
2022-08-21T13:53:38.568Z,24.38
2022-08-21T13:59:15.688Z,24.69
2022-08-21T14:04:53.359Z,24.19
2022-08-21T14:10:28.767Z,24.00
2022-08-21T14:16:04.077Z,24.46
2022-08-21T14:18:48.577Z,24.60
2022-08-21T14:24:23.953Z,24.59
2022-08-21T14:29:59.277Z,24.59
2022-08-21T14:35:34.624Z,24.40
2022-08-21T14:38:19.180Z,24.30
2022-08-21T14:44:04.347Z,24.32
2022-08-21T14:52:29.442Z,24.33
2022-08-21T14:58:04.686Z,24.45
2022-08-21T15:03:41.123Z,25.66
2022-08-21T15:09:16.438Z,25.88
2022-08-21T15:14:51.727Z,26.14
2022-08-21T15:20:27.003Z,28.74
2022-08-21T15:26:02.392Z,27.34
2022-08-21T15:28:47.231Z,27.33
2022-08-21T15:31:32.816Z,26.94
2022-08-21T15:37:08.117Z,26.04
2022-08-21T15:39:54.132Z,25.87
2022-08-21T15:45:30.047Z,30.05
2022-08-21T15:48:15.615Z,30.54
2022-08-21T15:53:51.085Z,32.26
2022-08-21T15:59:26.435Z,29.44
2022-08-21T16:05:01.760Z,32.08
2022-08-21T16:10:39.085Z,28.33
2022-08-21T16:16:16.670Z,27.04
2022-08-21T16:19:01.596Z,27.12
2022-08-21T16:24:37.807Z,26.87
2022-08-21T16:33:05.835Z,26.52
2022-08-21T16:38:41.559Z,26.23
2022-08-21T16:44:16.860Z,25.61
2022-08-21T16:49:52.250Z,25.67
2022-08-21T16:55:27.528Z,25.65
2022-08-21T16:58:12.066Z,25.63
2022-08-21T17:03:47.537Z,25.44
2022-08-21T17:09:22.809Z,25.17
2022-08-21T17:14:58.179Z,25.07
2022-08-21T17:20:33.434Z,24.76
2022-08-21T17:26:08.690Z,24.56
2022-08-21T17:31:48.083Z,24.36
2022-08-21T17:37:27.379Z,24.18
2022-08-21T17:40:17.074Z,24.12
2022-08-21T17:45:52.514Z,23.79
2022-08-21T17:48:37.063Z,23.65
2022-08-21T17:54:12.858Z,23.45
2022-08-21T17:59:55.168Z,23.19
2022-08-21T18:05:35.482Z,22.91
2022-08-21T18:08:20.322Z,22.71
2022-08-21T18:14:01.645Z,22.25
2022-08-21T18:28:16.393Z,21.83
2022-08-21T18:33:58.343Z,21.67
2022-08-21T18:39:37.567Z,21.34
2022-08-21T18:45:13.444Z,21.18
2022-08-21T18:50:50.755Z,21.10
2022-08-21T18:56:28.593Z,20.94
2022-08-21T18:59:13.361Z,20.82
2022-08-21T19:04:49.404Z,20.60
2022-08-21T19:10:28.559Z,20.47
2022-08-21T19:16:10.628Z,20.33
2022-08-21T19:19:00.714Z,20.21
2022-08-21T19:24:38.459Z,20.11
2022-08-21T19:30:13.786Z,19.90
2022-08-21T19:35:52.720Z,19.74
2022-08-21T19:38:38.637Z,19.73
2022-08-21T19:44:15.186Z,19.68
2022-08-21T19:49:50.611Z,19.54
2022-08-21T19:55:26.610Z,19.30
2022-08-21T19:58:12.210Z,19.20
2022-08-21T20:03:53.718Z,19.09
2022-08-21T20:09:35.329Z,18.88
2022-08-21T20:15:10.581Z,18.70
2022-08-21T20:20:45.795Z,18.71
2022-08-21T20:26:21.991Z,18.72
2022-08-21T20:29:07.272Z,18.72
2022-08-21T20:34:45.036Z,18.64
2022-08-21T20:40:20.991Z,18.46
2022-08-21T20:45:56.440Z,18.41
2022-08-21T20:48:49.380Z,18.36
2022-08-21T20:54:25.440Z,18.17
2022-08-21T21:00:01.098Z,17.93
2022-08-21T21:05:36.387Z,17.95
2022-08-21T21:08:22.157Z,17.86
2022-08-21T21:11:06.935Z,17.88
2022-08-21T21:16:42.240Z,17.91
2022-08-21T21:19:37.211Z,17.78
2022-08-21T21:25:12.706Z,17.78
2022-08-21T21:30:57.572Z,17.85
2022-08-21T21:36:32.316Z,17.90
2022-08-21T21:39:16.839Z,17.87
2022-08-21T21:44:52.649Z,17.87
2022-08-21T21:50:27.930Z,17.99
2022-08-21T21:56:03.160Z,17.99
2022-08-21T21:58:48.004Z,17.96
2022-08-21T22:04:23.555Z,17.88
2022-08-21T22:10:07.597Z,17.76
2022-08-21T22:15:51.912Z,17.71
2022-08-21T22:18:36.580Z,17.66
2022-08-21T22:24:22.068Z,17.55
2022-08-21T22:29:57.506Z,17.44
2022-08-21T22:41:14.334Z,17.36
2022-08-21T22:46:58.888Z,17.27
2022-08-21T22:49:44.037Z,17.29
2022-08-21T22:55:19.406Z,17.06
2022-08-21T22:58:12.888Z,16.97
2022-08-21T23:03:48.292Z,16.97
2022-08-21T23:09:24.089Z,16.90
2022-08-21T23:14:59.712Z,16.89
2022-08-21T23:20:37.500Z,16.73
2022-08-21T23:29:07.948Z,16.72
2022-08-21T23:34:43.245Z,16.64
2022-08-21T23:40:19.213Z,16.49
2022-08-21T23:45:54.554Z,16.41
2022-08-21T23:48:42.358Z,16.39
2022-08-21T23:54:17.903Z,16.29
2022-08-21T23:59:53.238Z,16.31
